createdAt,value
2023-03-01T00:01:08.078Z,15.95
2023-03-01T00:03:41.520Z,16.00
2023-03-01T00:06:15.374Z,16.63
2023-03-01T00:08:49.219Z,17.08
2023-03-01T00:11:24.850Z,21.35
2023-03-01T00:14:01.903Z,23.90
2023-03-01T00:16:39.776Z,28.33
2023-03-01T00:19:15.615Z,28.85
2023-03-01T00:21:49.995Z,29.42
2023-03-01T00:24:23.619Z,33.08
2023-03-01T00:26:57.845Z,32.10
2023-03-01T00:29:31.166Z,29.55
2023-03-01T00:32:06.015Z,26.75
2023-03-01T00:34:39.334Z,24.85
2023-03-01T00:37:12.616Z,25.58
2023-03-01T00:39:46.249Z,25.48
2023-03-01T00:42:19.601Z,25.25
2023-03-01T00:44:52.814Z,26.40
2023-03-01T00:47:27.409Z,31.75
2023-03-01T00:50:01.091Z,32.92
2023-03-01T00:52:34.316Z,35.70
2023-03-01T00:55:09.138Z,38.15
2023-03-01T00:57:42.599Z,33.08
2023-03-01T01:00:16.389Z,37.00
2023-03-01T01:05:24.365Z,30.60
2023-03-01T01:07:57.488Z,33.80
2023-03-01T01:10:31.084Z,32.80
2023-03-01T01:13:06.362Z,31.58
2023-03-01T01:15:41.085Z,29.92
2023-03-01T01:18:15.685Z,29.95
2023-03-01T01:20:48.888Z,32.08
2023-03-01T01:23:22.618Z,27.63
2023-03-01T01:25:56.067Z,24.95
2023-03-01T01:28:29.714Z,25.10
2023-03-01T01:31:03.283Z,21.75
2023-03-01T01:33:39.151Z,20.38
2023-03-01T01:36:13.153Z,21.42
2023-03-01T01:38:47.064Z,18.65
2023-03-01T01:41:22.297Z,20.73
2023-03-01T01:44:12.899Z,18.88
2023-03-01T01:46:50.401Z,20.90
2023-03-01T01:49:33.660Z,20.48
2023-03-01T01:52:11.840Z,20.85
2023-03-01T01:54:51.245Z,18.63
2023-03-01T01:57:29.624Z,18.35
2023-03-01T02:00:07.529Z,15.88
2023-03-01T02:02:43.969Z,19.23
2023-03-01T02:05:28.444Z,17.50
2023-03-01T02:08:02.262Z,13.90
2023-03-01T02:10:37.454Z,13.70
2023-03-01T02:13:11.747Z,14.23
2023-03-01T02:15:45.799Z,13.73
2023-03-01T02:18:21.188Z,13.57
2023-03-01T02:21:07.595Z,11.75
2023-03-01T02:23:41.546Z,14.45
2023-03-01T02:26:22.903Z,13.77
2023-03-01T02:28:58.009Z,14.60
2023-03-01T02:31:46.323Z,15.02
2023-03-01T02:34:22.107Z,14.00
2023-03-01T02:36:59.017Z,13.85
2023-03-01T02:39:36.612Z,15.88
2023-03-01T02:42:14.145Z,16.05
2023-03-01T02:44:48.729Z,18.10
2023-03-01T02:47:22.166Z,17.90
2023-03-01T02:49:56.106Z,20.65
2023-03-01T02:52:43.832Z,21.77
2023-03-01T02:55:19.214Z,24.02
2023-03-01T02:57:52.769Z,26.50
2023-03-01T03:03:03.948Z,25.90
2023-03-01T03:05:37.256Z,29.23
2023-03-01T03:08:12.338Z,30.48
2023-03-01T03:10:45.578Z,34.25
2023-03-01T03:13:20.259Z,32.60
2023-03-01T03:15:56.317Z,29.75
2023-03-01T03:18:29.999Z,31.52
2023-03-01T03:21:03.156Z,32.72
2023-03-01T03:23:36.622Z,35.25
2023-03-01T03:28:43.488Z,33.08
2023-03-01T03:31:18.559Z,27.23
2023-03-01T03:33:52.016Z,25.55
2023-03-01T03:36:26.777Z,24.90
2023-03-01T03:39:00.971Z,22.88
2023-03-01T03:41:37.019Z,18.65
2023-03-01T03:44:10.497Z,19.33
2023-03-01T03:46:45.449Z,20.70
2023-03-01T03:49:19.086Z,20.05
2023-03-01T03:51:52.362Z,19.02
2023-03-01T03:54:25.599Z,16.88
2023-03-01T03:56:58.818Z,13.77
2023-03-01T03:59:42.260Z,15.57
2023-03-01T04:02:23.287Z,17.77
2023-03-01T04:04:56.693Z,21.30
2023-03-01T04:07:29.879Z,23.80
2023-03-01T04:10:03.739Z,24.73
2023-03-01T04:12:39.848Z,32.15
2023-03-01T04:15:17.120Z,33.92
2023-03-01T04:17:53.820Z,37.15
2023-03-01T04:20:29.978Z,36.15
2023-03-01T04:23:11.608Z,35.65
2023-03-01T04:25:50.525Z,34.90
2023-03-01T04:28:26.145Z,36.13
2023-03-01T04:31:01.516Z,39.92
2023-03-01T04:33:36.424Z,40.90
2023-03-01T04:36:11.471Z,38.28
2023-03-01T04:38:48.477Z,38.75
2023-03-01T04:41:23.905Z,38.92
2023-03-01T04:43:57.240Z,40.25
2023-03-01T04:46:31.021Z,42.35
2023-03-01T04:49:06.243Z,42.90
2023-03-01T04:51:39.547Z,40.83
2023-03-01T04:54:12.801Z,40.38
2023-03-01T04:56:46.135Z,39.13
2023-03-01T04:59:23.531Z,34.22
2023-03-01T05:01:58.400Z,39.42
2023-03-01T05:04:33.418Z,42.53
2023-03-01T05:07:06.917Z,39.28
2023-03-01T05:09:40.200Z,41.45
2023-03-01T05:12:14.233Z,37.08
2023-03-01T05:14:48.040Z,46.05
2023-03-01T05:19:57.132Z,43.20
2023-03-01T05:22:30.614Z,37.47
2023-03-01T05:25:03.963Z,36.13
2023-03-01T05:27:37.630Z,33.30
2023-03-01T05:30:15.357Z,30.35
2023-03-01T05:32:51.097Z,30.95
2023-03-01T05:35:27.072Z,30.73
2023-03-01T05:38:00.619Z,33.28
2023-03-01T05:40:36.321Z,33.47
2023-03-01T05:43:09.947Z,32.22
2023-03-01T05:45:44.158Z,32.72
2023-03-01T05:48:17.479Z,30.63
2023-03-01T05:50:52.139Z,35.15
2023-03-01T05:53:25.542Z,32.33
2023-03-01T05:55:59.245Z,32.83
2023-03-01T05:58:32.559Z,32.60
2023-03-01T06:01:06.536Z,32.10
2023-03-01T06:03:40.018Z,31.88
2023-03-01T06:06:14.878Z,24.88
2023-03-01T06:08:48.177Z,26.58
2023-03-01T06:11:22.267Z,24.63
2023-03-01T06:13:55.937Z,23.40
2023-03-01T06:19:03.656Z,16.08
2023-03-01T06:21:38.263Z,18.00
2023-03-01T06:24:11.884Z,18.33
2023-03-01T06:26:45.261Z,21.20
2023-03-01T06:29:18.752Z,21.00
2023-03-01T06:34:25.998Z,21.48
2023-03-01T06:37:00.729Z,24.73
2023-03-01T06:39:34.384Z,26.88
2023-03-01T06:42:07.682Z,28.83
2023-03-01T06:44:41.183Z,26.98
2023-03-01T06:47:14.974Z,30.48
2023-03-01T06:49:48.432Z,27.27
2023-03-01T06:52:23.146Z,28.92
2023-03-01T06:54:56.625Z,29.23
2023-03-01T06:57:29.927Z,24.67
2023-03-01T07:00:03.524Z,26.90
2023-03-01T07:02:37.010Z,25.45
2023-03-01T07:05:10.798Z,28.30
2023-03-01T07:07:45.762Z,28.35
2023-03-01T07:10:19.370Z,32.03
2023-03-01T07:12:57.011Z,33.60
2023-03-01T07:15:31.122Z,33.08
2023-03-01T07:18:05.268Z,32.78
2023-03-01T07:23:13.261Z,30.83
2023-03-01T07:25:46.515Z,32.60
2023-03-01T07:28:19.980Z,32.85
2023-03-01T07:30:53.427Z,32.70
2023-03-01T07:33:27.496Z,35.33
2023-03-01T07:38:36.764Z,29.42
2023-03-01T07:41:10.563Z,33.53
2023-03-01T07:43:43.749Z,35.60
2023-03-01T07:46:18.798Z,30.83
2023-03-01T07:48:52.368Z,33.70
2023-03-01T07:51:26.170Z,38.10
2023-03-01T07:54:01.149Z,38.90
2023-03-01T07:56:34.618Z,34.42
2023-03-01T07:59:07.962Z,32.83
2023-03-01T08:01:41.233Z,33.63
2023-03-01T08:04:14.740Z,33.17
2023-03-01T08:06:48.271Z,32.95
2023-03-01T08:09:24.339Z,33.78
2023-03-01T08:12:00.843Z,34.15
2023-03-01T08:14:35.283Z,32.92
2023-03-01T08:17:09.061Z,34.22
2023-03-01T08:19:43.133Z,33.80
2023-03-01T08:22:17.019Z,36.22
2023-03-01T08:24:51.778Z,41.35
2023-03-01T08:27:25.621Z,47.35
2023-03-01T08:32:32.362Z,46.10
2023-03-01T08:37:40.147Z,35.13
2023-03-01T08:40:15.763Z,35.05
2023-03-01T08:42:48.963Z,38.15
2023-03-01T08:45:22.430Z,36.50
2023-03-01T08:47:55.823Z,41.50
2023-03-01T08:50:29.350Z,40.70
2023-03-01T08:55:37.953Z,32.10
2023-03-01T08:58:11.573Z,30.30
2023-03-01T09:00:45.667Z,28.42
2023-03-01T09:03:19.042Z,29.35
2023-03-01T09:05:52.413Z,32.42
2023-03-01T09:08:26.140Z,37.88
2023-03-01T09:11:03.603Z,45.92
2023-03-01T09:13:38.266Z,48.63
2023-03-01T09:21:30.619Z,35.72
2023-03-01T09:24:16.637Z,36.28
2023-03-01T09:26:51.872Z,29.52
2023-03-01T09:29:26.887Z,27.27
2023-03-01T09:32:00.596Z,27.10
2023-03-01T09:34:53.935Z,33.17
2023-03-01T09:37:29.236Z,32.75
2023-03-01T09:40:04.357Z,21.33
2023-03-01T09:42:50.033Z,19.10
2023-03-01T09:45:31.022Z,16.45
2023-03-01T09:48:06.243Z,20.48
2023-03-01T09:50:43.578Z,22.15
2023-03-01T09:53:18.923Z,25.20
2023-03-01T09:55:58.091Z,20.65
2023-03-01T09:58:46.116Z,20.70
2023-03-01T10:01:33.788Z,22.85
2023-03-01T10:04:37.631Z,24.35
2023-03-01T10:07:29.753Z,23.87
2023-03-01T10:10:05.679Z,24.17
2023-03-01T10:12:45.737Z,21.35
2023-03-01T10:15:27.980Z,22.15
2023-03-01T10:18:08.490Z,21.10
2023-03-01T10:20:48.571Z,19.77
2023-03-01T10:23:22.554Z,22.02
2023-03-01T10:26:14.404Z,19.40
2023-03-01T10:28:56.421Z,22.83
2023-03-01T10:31:44.028Z,22.38
2023-03-01T10:34:19.258Z,21.75
2023-03-01T10:36:57.732Z,20.83
2023-03-01T10:39:31.543Z,19.25
2023-03-01T10:42:07.568Z,19.60
2023-03-01T10:44:45.398Z,20.92
2023-03-01T10:47:22.676Z,18.70
2023-03-01T10:49:58.871Z,15.27
2023-03-01T10:52:35.875Z,14.77
2023-03-01T10:55:28.902Z,20.20
2023-03-01T10:58:11.596Z,19.50
2023-03-01T11:00:50.704Z,17.42
2023-03-01T11:03:28.594Z,16.00
2023-03-01T11:06:06.555Z,19.67
2023-03-01T11:08:43.399Z,20.13
2023-03-01T11:11:26.322Z,26.60
2023-03-01T11:14:06.587Z,30.38
2023-03-01T11:19:23.187Z,29.67
2023-03-01T11:22:02.263Z,28.48
2023-03-01T11:24:45.260Z,29.33
2023-03-01T11:27:21.852Z,28.63
2023-03-01T11:29:58.073Z,28.17
2023-03-01T11:32:40.914Z,26.92
2023-03-01T11:35:22.798Z,24.17
2023-03-01T11:38:11.807Z,21.50
2023-03-01T11:40:54.350Z,23.13
2023-03-01T11:43:39.607Z,24.02
2023-03-01T11:46:51.733Z,20.73
2023-03-01T11:49:50.950Z,20.95
2023-03-01T11:52:35.481Z,22.75
2023-03-01T11:55:25.843Z,20.63
2023-03-01T11:58:16.546Z,22.58
2023-03-01T12:01:05.819Z,22.35
2023-03-01T12:04:18.323Z,20.85
2023-03-01T12:06:58.004Z,23.40
2023-03-01T12:09:49.296Z,25.33
2023-03-01T12:12:38.726Z,26.48
2023-03-01T12:15:49.739Z,30.10
2023-03-01T12:18:49.483Z,23.10
2023-03-01T12:21:37.407Z,22.40
2023-03-01T12:24:40.938Z,21.60
2023-03-01T12:27:36.878Z,18.75
2023-03-01T12:30:23.955Z,21.50
2023-03-01T12:33:16.057Z,22.13
2023-03-01T12:36:07.542Z,25.08
2023-03-01T12:38:44.813Z,25.35
2023-03-01T12:41:45.826Z,24.35
2023-03-01T12:44:43.170Z,21.98
2023-03-01T12:47:29.088Z,24.10
2023-03-01T12:50:06.994Z,27.63
2023-03-01T12:52:46.105Z,28.60
2023-03-01T12:55:30.453Z,27.42
2023-03-01T12:58:14.365Z,28.10
2023-03-01T13:03:36.516Z,27.80
2023-03-01T13:06:17.223Z,24.58
2023-03-01T13:08:57.104Z,25.95
2023-03-01T13:11:31.041Z,27.45
2023-03-01T13:16:55.549Z,27.65
2023-03-01T13:19:31.167Z,28.65
2023-03-01T13:22:30.893Z,31.55
2023-03-01T13:25:15.459Z,27.15
2023-03-01T13:27:49.232Z,27.50
2023-03-01T13:33:41.813Z,22.67
2023-03-01T13:36:47.400Z,25.08
2023-03-01T13:39:34.232Z,24.85
2023-03-01T13:42:42.050Z,23.77
2023-03-01T13:45:22.904Z,25.38
2023-03-01T13:48:00.373Z,23.77
2023-03-01T13:50:45.378Z,23.35
2023-03-01T13:53:21.016Z,23.60
2023-03-01T13:55:59.786Z,26.13
2023-03-01T13:58:45.663Z,22.40
2023-03-01T14:01:28.634Z,23.98
2023-03-01T14:04:02.857Z,27.70
2023-03-01T14:06:37.789Z,26.55
2023-03-01T14:09:19.583Z,24.65
2023-03-01T14:12:19.331Z,22.63
2023-03-01T14:15:00.317Z,23.92
2023-03-01T14:17:46.895Z,25.40
2023-03-01T14:20:23.221Z,27.25
2023-03-01T14:23:00.900Z,25.00
2023-03-01T14:25:37.770Z,26.52
2023-03-01T14:28:19.552Z,23.08
2023-03-01T14:30:54.628Z,25.88
2023-03-01T14:33:30.485Z,26.92
2023-03-01T14:36:06.740Z,29.65
2023-03-01T14:38:45.055Z,29.30
2023-03-01T14:41:20.996Z,24.60
2023-03-01T14:44:00.574Z,24.48
2023-03-01T14:46:37.466Z,24.60
2023-03-01T14:49:16.442Z,26.05
2023-03-01T14:51:55.856Z,26.20
2023-03-01T14:54:39.973Z,22.45
2023-03-01T14:59:53.939Z,22.23
2023-03-01T15:02:29.274Z,25.63
2023-03-01T15:05:08.639Z,32.05
2023-03-01T15:07:49.896Z,28.20
2023-03-01T15:10:28.574Z,27.08
2023-03-01T15:13:13.825Z,28.05
2023-03-01T15:15:49.374Z,29.23
2023-03-01T15:18:27.731Z,30.30
2023-03-01T15:21:09.677Z,28.63
2023-03-01T15:23:43.449Z,32.85
2023-03-01T15:26:26.412Z,28.42
2023-03-01T15:29:02.183Z,29.93
2023-03-01T15:31:39.695Z,31.33
2023-03-01T15:34:25.124Z,30.95
2023-03-01T15:37:01.554Z,30.45
2023-03-01T15:39:39.336Z,31.33
2023-03-01T15:42:17.736Z,35.20
2023-03-01T15:44:51.957Z,29.92
2023-03-01T15:47:28.813Z,36.20
2023-03-01T15:50:03.420Z,39.42
2023-03-01T15:52:42.612Z,36.30
2023-03-01T15:55:21.211Z,33.58
2023-03-01T15:58:02.686Z,33.45
2023-03-01T16:00:35.892Z,35.78
2023-03-01T16:03:12.758Z,34.05
2023-03-01T16:05:46.189Z,33.92
2023-03-01T16:08:20.951Z,36.05
2023-03-01T16:10:55.632Z,29.58
2023-03-01T16:13:31.944Z,31.60
2023-03-01T16:16:06.428Z,35.92
2023-03-01T16:18:39.993Z,36.38
2023-03-01T16:21:17.669Z,30.55
2023-03-01T16:23:52.107Z,34.33
2023-03-01T16:26:25.245Z,35.40
2023-03-01T16:29:00.709Z,27.58
2023-03-01T16:31:34.527Z,25.80
2023-03-01T16:34:08.272Z,28.05
2023-03-01T16:36:42.108Z,26.35
2023-03-01T16:39:15.671Z,23.52
2023-03-01T16:41:48.894Z,22.17
2023-03-01T16:44:25.877Z,25.30
2023-03-01T16:46:59.471Z,28.63
2023-03-01T16:52:06.551Z,35.38
2023-03-01T16:54:40.067Z,31.33
2023-03-01T16:57:13.601Z,21.35
2023-03-01T16:59:48.379Z,21.85
2023-03-01T17:02:22.014Z,23.40
2023-03-01T17:04:55.934Z,25.27
2023-03-01T17:07:29.512Z,28.67
2023-03-01T17:10:03.026Z,31.65
2023-03-01T17:12:39.052Z,31.00
2023-03-01T17:15:14.284Z,21.77
2023-03-01T17:17:51.884Z,22.92
2023-03-01T17:20:25.527Z,22.10
2023-03-01T17:22:59.812Z,23.50
2023-03-01T17:25:33.784Z,22.77
2023-03-01T17:28:07.112Z,23.77
2023-03-01T17:30:47.780Z,21.80
2023-03-01T17:33:21.872Z,22.80
2023-03-01T17:35:55.270Z,24.20
2023-03-01T17:38:29.456Z,21.60
2023-03-01T17:41:02.670Z,21.35
2023-03-01T17:43:36.132Z,23.08
2023-03-01T17:46:11.439Z,21.80
2023-03-01T17:48:45.694Z,25.98
2023-03-01T17:51:19.380Z,24.33
2023-03-01T17:53:52.951Z,27.63
2023-03-01T17:56:26.991Z,25.52
2023-03-01T17:59:00.742Z,22.65
2023-03-01T18:01:36.898Z,19.98
2023-03-01T18:04:10.494Z,18.63
2023-03-01T18:06:44.381Z,18.17
2023-03-01T18:09:17.874Z,18.90
2023-03-01T18:11:53.969Z,18.85
2023-03-01T18:14:29.852Z,15.23
2023-03-01T18:17:06.724Z,16.55
2023-03-01T18:19:41.316Z,15.88
2023-03-01T18:22:14.786Z,15.02
2023-03-01T18:24:48.009Z,14.65
2023-03-01T18:27:21.183Z,15.43
2023-03-01T18:29:54.922Z,15.32
2023-03-01T18:32:29.704Z,22.73
2023-03-01T18:35:03.026Z,17.92
2023-03-01T18:37:36.697Z,16.00
2023-03-01T18:40:12.734Z,14.65
2023-03-01T18:42:46.307Z,12.75
2023-03-01T18:45:19.457Z,11.30
2023-03-01T18:47:54.583Z,10.95
2023-03-01T18:50:29.521Z,11.45
2023-03-01T18:53:02.823Z,9.73
2023-03-01T18:55:37.725Z,12.50
2023-03-01T18:58:11.992Z,11.25
2023-03-01T19:00:45.605Z,11.55
2023-03-01T19:03:20.705Z,12.52
2023-03-01T19:05:54.341Z,15.55
2023-03-01T19:11:04.652Z,16.17
2023-03-01T19:13:40.258Z,17.20
2023-03-01T19:16:16.655Z,19.60
2023-03-01T19:18:52.158Z,12.80
2023-03-01T19:21:25.961Z,14.27
2023-03-01T19:24:00.156Z,15.45
2023-03-01T19:29:07.764Z,15.05
2023-03-01T19:31:41.417Z,17.90
2023-03-01T19:34:16.923Z,17.95
2023-03-01T19:36:50.533Z,19.70
2023-03-01T19:39:24.464Z,21.15
2023-03-01T19:42:00.914Z,18.73
2023-03-01T19:44:34.799Z,19.38
2023-03-01T19:47:08.427Z,22.05
2023-03-01T19:49:43.267Z,20.55
2023-03-01T19:52:17.036Z,21.50
2023-03-01T19:54:51.928Z,19.77
2023-03-01T19:57:27.165Z,17.80
2023-03-01T20:00:01.621Z,15.85
2023-03-01T20:02:35.272Z,16.77
2023-03-01T20:05:12.073Z,16.42
2023-03-01T20:07:45.987Z,17.75
2023-03-01T20:10:19.999Z,18.10
2023-03-01T20:12:54.327Z,20.63
2023-03-01T20:15:27.783Z,22.48
2023-03-01T20:18:01.433Z,20.67
2023-03-01T20:23:10.059Z,21.10
2023-03-01T20:25:43.654Z,22.70
2023-03-01T20:28:17.464Z,22.25
2023-03-01T20:30:51.523Z,25.05
2023-03-01T20:33:25.505Z,17.67
2023-03-01T20:36:00.895Z,18.80
2023-03-01T20:38:35.115Z,19.42
2023-03-01T20:41:10.497Z,21.63
2023-03-01T20:43:44.134Z,21.05
2023-03-01T20:46:17.447Z,22.15
2023-03-01T20:48:51.790Z,21.23
2023-03-01T20:51:27.006Z,23.15
2023-03-01T20:54:00.652Z,24.20
2023-03-01T20:56:34.453Z,23.77
2023-03-01T21:01:43.149Z,20.65
2023-03-01T21:04:17.941Z,25.48
2023-03-01T21:06:53.111Z,25.13
2023-03-01T21:09:26.539Z,26.15
2023-03-01T21:12:02.354Z,26.10
2023-03-01T21:17:17.624Z,24.00
2023-03-01T21:19:51.031Z,23.63
2023-03-01T21:22:25.794Z,23.13
2023-03-01T21:24:59.136Z,23.38
2023-03-01T21:27:36.829Z,21.77
2023-03-01T21:30:11.313Z,19.33
2023-03-01T21:32:45.129Z,20.52
2023-03-01T21:35:18.914Z,19.90
2023-03-01T21:37:53.987Z,19.08
2023-03-01T21:40:27.497Z,18.65
2023-03-01T21:43:00.825Z,17.40
2023-03-01T21:45:36.150Z,15.57
2023-03-01T21:48:09.960Z,17.10
2023-03-01T21:50:43.827Z,14.55
2023-03-01T21:53:18.332Z,14.35
2023-03-01T21:55:52.278Z,12.80
2023-03-01T21:58:27.968Z,13.27
2023-03-01T22:01:10.023Z,14.18
2023-03-01T22:03:46.210Z,13.30
2023-03-01T22:06:22.815Z,13.52
2023-03-01T22:09:00.378Z,14.02
2023-03-01T22:11:35.605Z,13.45
2023-03-01T22:14:13.600Z,13.10
2023-03-01T22:16:51.600Z,13.13
2023-03-01T22:19:26.948Z,12.07
2023-03-01T22:22:00.099Z,11.65
2023-03-01T22:24:35.147Z,13.80
2023-03-01T22:27:08.603Z,11.73
2023-03-01T22:29:41.767Z,13.07
2023-03-01T22:32:15.046Z,12.52
2023-03-01T22:37:21.872Z,12.43
2023-03-01T22:39:57.349Z,11.40
2023-03-01T22:42:31.084Z,12.15
2023-03-01T22:45:04.990Z,12.07
2023-03-01T22:47:38.753Z,10.88
2023-03-01T22:50:15.217Z,12.10
2023-03-01T22:52:48.420Z,11.75
2023-03-01T22:55:23.668Z,11.48
2023-03-01T22:57:57.357Z,9.88
2023-03-01T23:00:30.780Z,11.60
2023-03-01T23:03:04.003Z,10.82
2023-03-01T23:05:37.279Z,10.13
2023-03-01T23:08:10.425Z,10.98
2023-03-01T23:10:45.211Z,12.50
2023-03-01T23:13:19.336Z,10.23
2023-03-01T23:18:27.594Z,9.75
2023-03-01T23:21:01.085Z,9.90
2023-03-01T23:23:34.223Z,10.20
2023-03-01T23:26:09.443Z,10.90
2023-03-01T23:28:43.743Z,10.82
2023-03-01T23:31:17.610Z,11.43
2023-03-01T23:36:26.289Z,10.55
2023-03-01T23:39:01.443Z,11.95
2023-03-01T23:41:36.396Z,10.85
2023-03-01T23:44:09.714Z,11.05
2023-03-01T23:46:43.155Z,11.07
2023-03-01T23:49:18.061Z,11.13
2023-03-01T23:51:51.466Z,9.80
2023-03-01T23:54:26.721Z,10.52
2023-03-01T23:57:01.975Z,9.77
2023-03-01T23:59:35.641Z,9.52
